createdAt,value
2022-08-29T00:01:30.255Z,102294.34
2022-08-29T00:06:31.868Z,102300.53
2022-08-29T00:11:33.427Z,102298.59
2022-08-29T00:16:35.457Z,102294.63
2022-08-29T00:21:37.143Z,102314.84
2022-08-29T00:26:38.799Z,102320.75
2022-08-29T00:31:40.371Z,102310.28
2022-08-29T00:36:41.940Z,102306.78
2022-08-29T00:41:50.720Z,102302.22
2022-08-29T00:46:55.941Z,102303.16
2022-08-29T00:52:00.480Z,102311.34
2022-08-29T00:57:02.488Z,102319.22
2022-08-29T01:02:06.254Z,102307.34
2022-08-29T01:07:09.433Z,102298.50
2022-08-29T01:12:17.618Z,102297.06
2022-08-29T01:17:24.025Z,102294.78
2022-08-29T01:22:47.513Z,102301.22
2022-08-29T01:28:06.819Z,102301.94
2022-08-29T01:33:08.872Z,102296.00
2022-08-29T01:38:11.752Z,102295.41
2022-08-29T01:43:13.322Z,102316.09
2022-08-29T01:48:15.339Z,102321.06
2022-08-29T01:53:17.279Z,102309.31
2022-08-29T01:58:18.822Z,102309.41
2022-08-29T02:03:20.426Z,102306.44
2022-08-29T02:08:21.975Z,102321.16
2022-08-29T02:13:24.490Z,102320.97
2022-08-29T02:18:26.064Z,102331.44
2022-08-29T02:23:31.248Z,102346.25
2022-08-29T02:28:35.496Z,102354.53
2022-08-29T02:33:38.199Z,102349.28
2022-08-29T02:38:40.288Z,102352.88
2022-08-29T02:43:42.293Z,102357.03
2022-08-29T02:48:49.218Z,102365.66
2022-08-29T02:54:03.669Z,102363.97
2022-08-29T02:59:05.658Z,102371.78
2022-08-29T03:04:07.228Z,102363.69
2022-08-29T03:09:08.837Z,102415.28
2022-08-29T03:14:10.458Z,102404.91
2022-08-29T03:19:12.076Z,102420.13
2022-08-29T03:24:13.769Z,102423.03
2022-08-29T03:29:15.348Z,102427.81
2022-08-29T03:34:16.924Z,102426.38
2022-08-29T03:39:18.841Z,102424.03
2022-08-29T03:44:20.428Z,102410.94
2022-08-29T03:49:21.979Z,102409.78
2022-08-29T03:54:26.620Z,102408.81
2022-08-29T03:59:28.182Z,102394.25
2022-08-29T04:04:48.093Z,102395.41
2022-08-29T04:09:49.916Z,102378.75
2022-08-29T04:14:51.518Z,102380.06
2022-08-29T04:19:53.160Z,102380.06
2022-08-29T04:24:54.839Z,102386.66
2022-08-29T04:29:56.354Z,102392.66
2022-08-29T04:34:58.858Z,102400.19
2022-08-29T04:40:01.420Z,102391.53
2022-08-29T04:45:04.751Z,102388.41
2022-08-29T04:50:07.841Z,102393.50
2022-08-29T04:55:11.442Z,102401.09
2022-08-29T05:00:17.313Z,102404.59
2022-08-29T05:05:18.946Z,102410.63
2022-08-29T05:10:22.596Z,102406.38
2022-08-29T05:15:24.235Z,102408.47
2022-08-29T05:20:25.804Z,102420.13
2022-08-29T05:25:27.340Z,102421.44
2022-08-29T05:30:35.190Z,102409.56
2022-08-29T05:35:37.599Z,102428.56
2022-08-29T05:40:39.214Z,102443.03
2022-08-29T05:45:41.782Z,102447.16
2022-08-29T05:50:44.036Z,102438.00
2022-08-29T05:55:47.680Z,102451.75
2022-08-29T06:00:52.392Z,102442.88
2022-08-29T06:05:54.029Z,102436.97
2022-08-29T06:10:55.833Z,102426.66
2022-08-29T06:15:57.537Z,102439.38
2022-08-29T06:20:59.237Z,102429.16
2022-08-29T06:26:01.233Z,102415.16
2022-08-29T06:31:20.929Z,102395.59
2022-08-29T06:36:25.507Z,102389.91
2022-08-29T06:41:28.593Z,102345.97
2022-08-29T06:46:37.589Z,102338.81
2022-08-29T06:51:42.315Z,102314.81
2022-08-29T06:56:43.980Z,102308.44
2022-08-29T07:01:47.580Z,102300.56
2022-08-29T07:06:49.607Z,102300.44
2022-08-29T07:11:51.274Z,102292.28
2022-08-29T07:16:52.974Z,102303.25
2022-08-29T07:21:58.121Z,102302.56
2022-08-29T07:27:00.534Z,102293.78
2022-08-29T07:32:02.250Z,102281.00
2022-08-29T07:37:05.759Z,102285.59
2022-08-29T07:42:07.933Z,102272.72
2022-08-29T07:47:09.510Z,102274.03
2022-08-29T07:52:11.334Z,102273.56
2022-08-29T07:57:16.534Z,102277.00
2022-08-29T08:02:18.188Z,102279.66
2022-08-29T08:07:19.786Z,102278.22
2022-08-29T08:12:26.356Z,102278.91
2022-08-29T08:17:27.936Z,102274.72
2022-08-29T08:22:29.503Z,102260.09
2022-08-29T08:27:33.262Z,102273.00
2022-08-29T08:32:34.984Z,102285.53
2022-08-29T08:37:40.319Z,102271.19
2022-08-29T08:42:45.454Z,102273.31
2022-08-29T08:47:51.126Z,102270.03
2022-08-29T08:53:00.786Z,102271.78
2022-08-29T08:58:10.974Z,102262.72
2022-08-29T09:03:48.457Z,102260.22
2022-08-29T09:09:08.124Z,102250.88
2022-08-29T09:14:47.094Z,102241.16
2022-08-29T09:19:52.614Z,102247.25
2022-08-29T09:25:01.304Z,102238.34
2022-08-29T09:30:14.910Z,102218.72
2022-08-29T09:35:24.505Z,102232.84
2022-08-29T09:40:42.841Z,102231.25
2022-08-29T09:46:10.970Z,102222.47
2022-08-29T09:51:22.217Z,102222.78
2022-08-29T09:56:27.888Z,102231.75
2022-08-29T10:01:32.279Z,102224.69
2022-08-29T10:06:45.114Z,102217.97
2022-08-29T10:11:56.528Z,102215.41
2022-08-29T10:17:43.251Z,102202.78
2022-08-29T10:23:31.805Z,102176.00
2022-08-29T10:28:43.059Z,102184.63
2022-08-29T10:34:16.591Z,102179.41
2022-08-29T10:39:46.018Z,102180.25
2022-08-29T10:45:02.695Z,102181.31
2022-08-29T10:50:10.102Z,102171.81
2022-08-29T10:55:27.403Z,102163.06
2022-08-29T11:00:40.234Z,102164.84
2022-08-29T11:05:52.579Z,102164.81
2022-08-29T11:10:54.263Z,102162.16
2022-08-29T11:16:52.634Z,102162.91
2022-08-29T11:22:17.275Z,102163.91
2022-08-29T11:34:36.780Z,102161.03
2022-08-29T11:40:15.491Z,102156.06
2022-08-29T11:45:25.626Z,102147.28
2022-08-29T11:50:38.911Z,102145.63
2022-08-29T11:55:43.078Z,102135.16
2022-08-29T12:00:51.465Z,102131.50
2022-08-29T12:06:00.850Z,102125.47
2022-08-29T12:11:02.464Z,102117.59
2022-08-29T12:16:09.313Z,102114.16
2022-08-29T12:21:44.237Z,102107.88
2022-08-29T12:26:46.922Z,102106.63
2022-08-29T12:32:22.284Z,102087.66
2022-08-29T12:38:12.878Z,102090.00
2022-08-29T12:49:55.846Z,102097.53
2022-08-29T12:55:00.575Z,102088.75
2022-08-29T13:00:12.007Z,102089.22
2022-08-29T13:05:28.899Z,102075.00
2022-08-29T13:10:30.833Z,102070.72
2022-08-29T13:15:33.442Z,102062.28
2022-08-29T13:20:38.265Z,102063.25
2022-08-29T13:25:46.784Z,102047.41
2022-08-29T13:31:10.226Z,102055.84
2022-08-29T13:36:27.172Z,102051.75
2022-08-29T13:41:29.010Z,102044.19
2022-08-29T13:46:31.058Z,102035.44
2022-08-29T13:51:33.769Z,102035.72
2022-08-29T14:07:02.072Z,102029.38
2022-08-29T14:12:06.701Z,102025.91
2022-08-29T14:17:08.299Z,102017.19
2022-08-29T14:22:11.800Z,102009.06
2022-08-29T14:27:13.471Z,101989.22
2022-08-29T14:32:15.104Z,101998.81
2022-08-29T14:37:16.651Z,101997.00
2022-08-29T14:42:18.905Z,101991.66
2022-08-29T14:47:20.539Z,101982.13
2022-08-29T14:52:22.154Z,101992.28
2022-08-29T14:57:23.696Z,101988.88
2022-08-29T15:02:25.332Z,101989.09
2022-08-29T15:07:27.255Z,101980.38
2022-08-29T15:12:29.054Z,101994.19
2022-08-29T15:17:30.956Z,101979.41
2022-08-29T15:22:32.717Z,101970.72
2022-08-29T15:27:34.283Z,101971.56
2022-08-29T15:32:38.936Z,101958.00
2022-08-29T15:37:40.675Z,101948.94
2022-08-29T15:42:42.269Z,101947.13
2022-08-29T15:47:46.227Z,101949.78
2022-08-29T15:52:48.135Z,101939.56
2022-08-29T15:57:51.955Z,101944.00
2022-08-29T16:02:55.021Z,101945.94
2022-08-29T16:07:56.717Z,101933.75
2022-08-29T16:12:58.806Z,101927.50
2022-08-29T16:18:32.341Z,101919.53
2022-08-29T16:24:03.351Z,101914.38
2022-08-29T16:29:26.560Z,101910.78
2022-08-29T16:34:28.916Z,101909.84
2022-08-29T16:39:30.467Z,101918.44
2022-08-29T16:44:33.174Z,101916.81
2022-08-29T16:50:13.394Z,101939.78
2022-08-29T16:55:15.140Z,101945.22
2022-08-29T17:00:16.735Z,101927.88
2022-08-29T17:05:19.609Z,101935.88
2022-08-29T17:10:21.158Z,101928.81
2022-08-29T17:15:22.825Z,101925.34
2022-08-29T17:20:24.896Z,101925.31
2022-08-29T17:25:26.563Z,101918.31
2022-08-29T17:30:30.564Z,101929.69
2022-08-29T17:35:32.321Z,101931.44
2022-08-29T17:40:34.032Z,101931.53
2022-08-29T17:45:38.688Z,101936.84
2022-08-29T17:50:40.387Z,101941.22
2022-08-29T17:55:42.079Z,101935.97
2022-08-29T18:00:43.932Z,101952.50
2022-08-29T18:05:45.939Z,101955.09
2022-08-29T18:10:47.528Z,101955.75
2022-08-29T18:15:52.711Z,101956.44
2022-08-29T18:20:54.500Z,101952.19
2022-08-29T18:25:56.110Z,101955.56
2022-08-29T18:31:01.206Z,101957.06
2022-08-29T18:36:06.876Z,101964.78
2022-08-29T18:41:08.569Z,101975.13
2022-08-29T18:46:10.337Z,101977.53
2022-08-29T18:51:15.463Z,101985.38
2022-08-29T18:56:17.031Z,101985.56
2022-08-29T19:01:28.399Z,102000.19
2022-08-29T19:06:30.541Z,102004.66
2022-08-29T19:11:32.076Z,102015.84
2022-08-29T19:16:34.332Z,102025.53
2022-08-29T19:21:35.893Z,102023.66
2022-08-29T19:26:39.942Z,102029.50
2022-08-29T19:31:41.663Z,102042.88
2022-08-29T19:36:46.923Z,102040.13
2022-08-29T19:41:50.084Z,102055.75
2022-08-29T19:46:52.305Z,102068.34
2022-08-29T19:51:54.181Z,102060.69
2022-08-29T19:56:56.320Z,102063.22
2022-08-29T20:01:58.379Z,102071.78
2022-08-29T20:07:00.553Z,102075.97
2022-08-29T20:12:03.800Z,102094.50
2022-08-29T20:17:09.212Z,102090.44
2022-08-29T20:22:11.825Z,102081.00
2022-08-29T20:27:14.163Z,102087.81
2022-08-29T20:32:15.867Z,102087.53
2022-08-29T20:37:19.306Z,102087.59
2022-08-29T20:42:24.013Z,102091.50
2022-08-29T20:47:40.847Z,102098.38
2022-08-29T20:52:42.382Z,102104.53
2022-08-29T20:57:43.920Z,102103.69
2022-08-29T21:03:05.757Z,102108.66
2022-08-29T21:09:10.751Z,102116.28
2022-08-29T21:14:15.182Z,102118.13
2022-08-29T21:19:17.231Z,102126.78
2022-08-29T21:24:20.134Z,102117.22
2022-08-29T21:29:22.841Z,102112.72
2022-08-29T21:34:43.650Z,102120.44
2022-08-29T21:39:47.690Z,102122.94
2022-08-29T21:44:49.249Z,102133.34
2022-08-29T21:49:51.721Z,102129.09
2022-08-29T21:54:54.192Z,102136.41
2022-08-29T21:59:55.827Z,102144.84
2022-08-29T22:04:57.360Z,102160.16
2022-08-29T22:09:59.653Z,102159.06
2022-08-29T22:15:19.889Z,102166.00
2022-08-29T22:20:21.476Z,102166.56
2022-08-29T22:25:23.537Z,102182.53
2022-08-29T22:30:31.805Z,102183.06
2022-08-29T22:35:34.490Z,102185.28
2022-08-29T22:40:36.121Z,102196.75
2022-08-29T22:45:39.499Z,102209.88
2022-08-29T22:50:45.898Z,102220.81
2022-08-29T22:55:59.512Z,102225.34
2022-08-29T23:01:01.050Z,102233.06
2022-08-29T23:06:02.613Z,102229.38
2022-08-29T23:11:04.221Z,102230.06
2022-08-29T23:16:05.914Z,102237.69
2022-08-29T23:21:07.943Z,102234.59
2022-08-29T23:26:10.193Z,102248.09
2022-08-29T23:31:12.664Z,102250.09
2022-08-29T23:36:14.495Z,102261.16
2022-08-29T23:41:16.226Z,102262.75
2022-08-29T23:46:22.359Z,102259.09
2022-08-29T23:51:24.088Z,102261.69
2022-08-29T23:56:25.891Z,102257.44
